Madison, Nebraska
Current Conditions -  °F | °C
As of 9:56 AM on Thursday 23 Oct 2014 (Local Time) from KOFK Reporting Station
Clear Clear  
Wind Chill: 50°   Ceiling: Unl
Heat Index: 50°   Visibility: 10mi
Dew Point: 48°   Wind: 3mph
Humidity: 93%   Direction: 290°WNW
Pressure: 30.07"   Gusts: NA
Location:  41.83°N, 97.46°W
Report Text: KOFK 231456Z AUTO 29003KT 10SM CLR 10/09 A3007 RMK AO2 SLP184 T01000089 53010
Loading
Personal Weather Stations






























Interactive Weather Map New forecast layout! Learn more

10-Day Weather Forecast

Advertisements
Track Severe Weather on mobile